Time;durP1;ratioP1;P1;durP2;ratioP2;P2;SDS_P1;SDS_P2;PMS_P1;PMS_P2;Temp;Humidity;BMP_temperature;BMP_pressure;BME280_temperature;BME280_humidity;BME280_pressure;Samples;Min_cycle;Max_cycle;Signal;HPM_P1;HPM_P2
2022/03/17 00:02:23;;;;;;;21.60;13.50;;;;;;;5.89;100.00;101452.28;5971907;29;20066;-92
2022/03/17 00:05:25;;;;;;;24.10;14.23;;;;;;;5.92;100.00;101461.59;5968590;29;20544;-92
2022/03/17 00:08:27;;;;;;;23.50;13.68;;;;;;;5.90;100.00;101460.81;5960743;29;20061;-92
2022/03/17 00:11:29;;;;;;;25.35;14.68;;;;;;;5.91;100.00;101458.16;5974788;29;20389;-92
2022/03/17 00:14:31;;;;;;;23.60;14.73;;;;;;;5.98;100.00;101463.91;5953382;29;20054;-92
2022/03/17 00:17:32;;;;;;;25.42;15.48;;;;;;;5.96;100.00;101455.41;5963138;29;20373;-92
2022/03/17 00:20:34;;;;;;;22.73;13.93;;;;;;;6.02;100.00;101450.03;5968361;29;20042;-92
2022/03/17 00:23:36;;;;;;;23.77;13.63;;;;;;;6.05;100.00;101455.03;5969588;29;20507;-92
2022/03/17 00:26:38;;;;;;;24.77;14.18;;;;;;;6.03;100.00;101455.06;5964228;29;20059;-92
2022/03/17 00:29:40;;;;;;;23.83;14.52;;;;;;;6.09;100.00;101445.41;5965309;29;20110;-92
2022/03/17 00:32:42;;;;;;;22.20;13.25;;;;;;;6.06;100.00;101438.69;5961278;29;20051;-92
2022/03/17 00:35:44;;;;;;;24.10;14.63;;;;;;;6.06;100.00;101436.09;5967885;29;20110;-92
2022/03/17 00:38:46;;;;;;;24.48;14.70;;;;;;;6.06;100.00;101425.00;5968158;29;20131;-92
2022/03/17 00:41:49;;;;;;;24.48;13.95;;;;;;;6.06;100.00;101433.53;5960321;29;20504;-92
2022/03/17 00:44:51;;;;;;;23.30;13.80;;;;;;;6.03;100.00;101426.81;5978644;29;20079;-92
2022/03/17 00:47:55;;;;;;;25.63;15.05;;;;;;;6.10;100.00;101429.94;5948833;29;20138;-92
2022/03/17 00:50:57;;;;;;;22.15;13.60;;;;;;;6.12;100.00;101435.03;5978077;29;20054;-92
2022/03/17 00:53:59;;;;;;;25.17;14.70;;;;;;;6.09;100.00;101435.13;5959766;29;20145;-92
2022/03/17 00:57:00;;;;;;;21.60;13.75;;;;;;;6.01;100.00;101440.63;5963369;29;20412;-92
2022/03/17 01:00:05;;;;;;;24.45;14.68;;;;;;;5.95;100.00;101436.59;5969090;29;20051;-92
2022/03/17 01:03:07;;;;;;;24.33;15.13;;;;;;;5.94;100.00;101446.97;5970589;29;20126;-92
2022/03/17 01:06:10;;;;;;;22.73;13.48;;;;;;;5.95;100.00;101440.91;5965792;29;20058;-92
2022/03/17 01:09:12;;;;;;;24.42;14.15;;;;;;;5.94;100.00;101445.22;5980540;29;20042;-92
2022/03/17 01:12:14;;;;;;;22.33;14.05;;;;;;;5.88;100.00;101457.47;5986447;29;20092;-92
2022/03/17 01:15:18;;;;;;;26.50;14.73;;;;;;;5.80;100.00;101460.38;5966199;29;20054;-92
2022/03/17 01:18:21;;;;;;;25.73;14.25;;;;;;;5.73;100.00;101456.41;5964481;29;20080;-92
2022/03/17 01:21:22;;;;;;;25.80;14.40;;;;;;;5.76;100.00;101459.69;5961816;29;20061;-92
2022/03/17 01:24:24;;;;;;;23.92;14.30;;;;;;;5.68;100.00;101453.22;5969152;29;20058;-92
2022/03/17 01:27:26;;;;;;;21.88;13.75;;;;;;;5.68;100.00;101454.03;5982696;29;20050;-92
2022/03/17 01:30:28;;;;;;;27.15;15.30;;;;;;;5.67;100.00;101449.81;5962428;29;20051;-92
2022/03/17 01:33:30;;;;;;;22.52;14.15;;;;;;;5.69;100.00;101448.03;5964931;29;20420;-92
2022/03/17 01:36:32;;;;;;;24.63;13.68;;;;;;;5.69;100.00;101448.03;5965767;29;20051;-92
2022/03/17 01:39:37;;;;;;;25.65;14.98;;;;;;;5.73;100.00;101449.53;5970429;29;20034;-92
2022/03/17 01:42:39;;;;;;;26.17;14.85;;;;;;;5.75;100.00;101440.03;5973641;29;20496;-92
2022/03/17 01:45:42;;;;;;;23.92;14.40;;;;;;;5.77;100.00;101445.94;5962760;29;20680;-92
2022/03/17 01:48:45;;;;;;;23.70;13.38;;;;;;;5.77;100.00;101434.84;5959362;29;20285;-92
2022/03/17 01:51:48;;;;;;;25.70;14.63;;;;;;;5.77;100.00;101433.09;5952509;29;20043;-92
2022/03/17 01:54:51;;;;;;;25.73;14.50;;;;;;;5.74;100.00;101435.81;5964939;29;20134;-92
2022/03/17 01:57:53;;;;;;;23.38;14.85;;;;;;;5.74;100.00;101427.25;5976220;29;20034;-92
2022/03/17 02:00:56;;;;;;;24.92;14.98;;;;;;;5.73;100.00;101428.97;5950517;29;20085;-92
2022/03/17 02:03:58;;;;;;;23.40;14.55;;;;;;;5.75;100.00;101426.34;5983914;29;20050;-92
2022/03/17 02:06:59;;;;;;;22.92;13.95;;;;;;;5.81;100.00;101415.78;5979665;29;20096;-92
2022/03/17 02:10:01;;;;;;;26.02;15.45;;;;;;;5.79;100.00;101417.63;5977370;29;20708;-91
2022/03/17 02:13:09;;;;;;;25.33;14.70;;;;;;;5.77;100.00;101415.13;5965840;29;20393;-92
2022/03/17 02:16:11;;;;;;;22.67;15.02;;;;;;;5.74;100.00;101419.53;5965463;29;20122;-92
2022/03/17 02:19:13;;;;;;;27.02;14.90;;;;;;;5.76;100.00;101422.88;5971667;29;20054;-92
2022/03/17 02:22:18;;;;;;;28.45;16.60;;;;;;;5.70;100.00;101413.72;5977621;29;20092;-92
2022/03/17 02:25:36;;;;;;;25.83;15.85;;;;;;;5.69;100.00;101417.19;5980086;29;20054;-91
2022/03/17 02:28:38;;;;;;;24.50;15.38;;;;;;;5.67;100.00;101406.16;5948598;29;20058;-92
2022/03/17 02:31:41;;;;;;;25.77;16.45;;;;;;;5.63;100.00;101417.44;5979912;29;20046;-91
2022/03/17 02:34:44;;;;;;;25.08;15.88;;;;;;;5.63;100.00;101414.88;5956479;29;20045;-92
2022/03/17 02:37:46;;;;;;;26.13;14.75;;;;;;;5.54;100.00;101398.16;5954509;29;20055;-92
2022/03/17 02:40:52;;;;;;;29.50;16.33;;;;;;;5.50;100.00;101403.50;5953185;29;20042;-92
2022/03/17 02:43:54;;;;;;;26.13;16.23;;;;;;;5.47;100.00;101401.06;5968229;29;20050;-92
2022/03/17 02:46:56;;;;;;;28.35;16.92;;;;;;;5.45;100.00;101401.13;5970384;29;20104;-92
2022/03/17 02:49:58;;;;;;;25.17;16.48;;;;;;;5.41;100.00;101389.31;5978954;29;20046;-92
2022/03/17 02:53:05;;;;;;;29.00;16.63;;;;;;;5.45;100.00;101393.41;5981288;29;20054;-92
2022/03/17 02:56:07;;;;;;;26.90;15.70;;;;;;;5.47;100.00;101388.22;5978582;29;20203;-92
2022/03/17 02:59:09;;;;;;;26.55;15.10;;;;;;;5.44;100.00;101380.63;5981507;29;20049;-92
2022/03/17 03:02:11;;;;;;;27.65;16.73;;;;;;;5.48;100.00;101366.78;5971113;29;20042;-92
2022/03/17 03:05:13;;;;;;;28.50;15.63;;;;;;;5.44;100.00;101368.66;5961035;29;20070;-92
2022/03/17 03:08:15;;;;;;;27.67;15.85;;;;;;;5.42;100.00;101372.19;5978816;29;20617;-92
2022/03/17 03:11:17;;;;;;;28.73;17.13;;;;;;;5.44;100.00;101366.09;5979314;29;20601;-92
2022/03/17 03:14:19;;;;;;;31.77;18.35;;;;;;;5.49;100.00;101368.44;5962304;29;20511;-92
2022/03/17 03:17:22;;;;;;;27.48;16.33;;;;;;;5.49;100.00;101365.84;5959966;29;20046;-92
2022/03/17 03:20:24;;;;;;;28.35;16.73;;;;;;;5.46;100.00;101371.13;5979008;29;20808;-92
2022/03/17 03:23:25;;;;;;;28.25;16.80;;;;;;;5.45;100.00;101369.47;5965182;29;20184;-92
2022/03/17 03:26:27;;;;;;;30.48;17.73;;;;;;;5.49;100.00;101363.28;5947351;29;20061;-92
2022/03/17 03:29:30;;;;;;;32.05;17.00;;;;;;;5.47;100.00;101365.13;5980932;29;20454;-92
2022/03/17 03:32:31;;;;;;;25.83;15.50;;;;;;;5.45;100.00;101365.16;5981559;29;20042;-92
2022/03/17 03:39:00;;;;;;;28.52;17.27;;;;;;;5.46;100.00;101358.28;5980469;29;20042;-92
2022/03/17 03:42:03;;;;;;;28.75;16.55;;;;;;;5.41;100.00;101350.78;5974903;29;20587;-92
2022/03/17 03:45:05;;;;;;;31.40;17.38;;;;;;;5.42;100.00;101349.09;5982478;29;20500;-92
2022/03/17 03:48:07;;;;;;;30.27;17.80;;;;;;;5.41;100.00;101343.09;5964887;29;20059;-92
2022/03/17 03:51:09;;;;;;;29.20;17.48;;;;;;;5.48;100.00;101346.22;5965972;29;20122;-92
2022/03/17 03:54:16;;;;;;;32.80;18.52;;;;;;;5.47;100.00;101344.56;5959901;29;20074;-91
2022/03/17 03:57:18;;;;;;;27.45;16.90;;;;;;;5.48;100.00;101344.50;5982036;29;20046;-91
2022/03/17 04:03:30;;;;;;;;;;;;;;;5.48;100.00;101334.22;5958114;29;20668;-92
2022/03/17 04:10:05;;;;;;;31.38;17.00;;;;;;;5.53;100.00;101316.03;6004142;29;20077;-92
2022/03/17 04:13:07;;;;;;;29.38;17.38;;;;;;;5.55;100.00;101314.25;5992728;29;20065;-92
2022/03/17 04:16:11;;;;;;;30.70;18.25;;;;;;;5.54;100.00;101312.56;5991376;29;20046;-92
2022/03/17 04:19:15;;;;;;;29.25;17.65;;;;;;;5.55;100.00;101316.81;5988396;29;20060;-92
2022/03/17 04:22:17;;;;;;;28.83;17.08;;;;;;;5.60;100.00;101314.88;5989840;29;20133;-92
2022/03/17 04:25:19;;;;;;;32.75;18.50;;;;;;;5.55;100.00;101312.50;5999191;29;20038;-92
2022/03/17 04:28:20;;;;;;;31.85;18.20;;;;;;;5.59;100.00;101318.34;5988389;29;20054;-92
2022/03/17 04:31:23;;;;;;;30.60;17.90;;;;;;;5.62;100.00;101315.63;5984623;29;20049;-92
2022/03/17 04:34:25;;;;;;;35.75;19.98;;;;;;;5.61;100.00;101327.66;5986937;29;20054;-92
2022/03/17 04:37:29;;;;;;;32.60;18.77;;;;;;;5.67;100.00;101331.66;5992249;29;20305;-92
2022/03/17 04:40:31;;;;;;;29.15;17.33;;;;;;;5.73;100.00;101322.84;5998843;29;20534;-92
2022/03/17 04:43:33;;;;;;;29.88;16.75;;;;;;;5.90;100.00;101330.59;6024828;29;20067;-92
2022/03/17 04:46:36;;;;;;;30.15;17.55;;;;;;;5.92;100.00;101330.53;5977522;29;20050;-92
2022/03/17 04:49:38;;;;;;;34.80;18.63;;;;;;;5.95;100.00;101333.81;5977309;29;20046;-92
2022/03/17 04:56:05;;;;;;;33.35;18.52;;;;;;;5.99;100.00;101337.91;5966348;29;20031;-92
2022/03/17 04:59:07;;;;;;;31.75;18.58;;;;;;;6.08;100.00;101335.81;5970252;29;20427;-92
2022/03/17 05:02:12;;;;;;;32.38;18.58;;;;;;;6.13;100.00;101341.56;5951374;29;20043;-92
2022/03/17 05:05:14;;;;;;;30.73;18.20;;;;;;;6.28;100.00;101347.72;5963371;29;20054;-92
2022/03/17 05:08:16;;;;;;;33.85;19.00;;;;;;;6.29;100.00;101334.81;5956666;29;20133;-92
2022/03/17 05:11:19;;;;;;;30.02;18.38;;;;;;;6.17;100.00;101338.78;5958577;29;20822;-92
2022/03/17 05:14:27;;;;;;;33.78;18.63;;;;;;;6.17;100.00;101341.34;5970484;29;20046;-92
2022/03/17 05:17:47;;;;;;;31.58;18.42;;;;;;;6.16;100.00;101337.13;5957574;29;20051;-92
2022/03/17 05:21:08;;;;;;;35.10;18.95;;;;;;;6.20;100.00;101332.66;5949452;29;20062;-92
2022/03/17 05:24:23;;;;;;;33.63;19.83;;;;;;;6.14;100.00;101344.06;5978422;29;20058;-91
2022/03/17 05:27:47;;;;;;;34.42;19.40;;;;;;;6.10;100.00;101341.72;5981933;29;20057;-92
2022/03/17 05:31:08;;;;;;;32.28;18.50;;;;;;;6.14;100.00;101349.22;5978801;29;20444;-92
2022/03/17 05:34:32;;;;;;;36.50;19.33;;;;;;;6.11;100.00;101351.09;5964219;29;20050;-92
2022/03/17 05:37:48;;;;;;;33.78;18.55;;;;;;;6.20;100.00;101366.91;5953804;29;20050;-92
2022/03/17 05:41:10;;;;;;;32.90;19.35;;;;;;;6.32;100.00;101364.69;5981062;29;20042;-92
2022/03/17 05:44:25;;;;;;;33.95;19.08;;;;;;;6.42;100.00;101366.72;5953624;29;20057;-92
2022/03/17 05:47:39;;;;;;;35.13;19.00;;;;;;;6.51;100.00;101372.31;5953586;29;20047;-92
2022/03/17 05:50:45;;;;;;;32.63;19.58;;;;;;;6.58;100.00;101376.28;5970404;29;20165;-92
2022/03/17 05:53:46;;;;;;;31.65;18.52;;;;;;;6.55;100.00;101366.97;5960546;29;20466;-92
2022/03/17 05:56:48;;;;;;;32.50;20.27;;;;;;;6.59;100.00;101375.38;5988444;29;20162;-92
2022/03/17 05:59:50;;;;;;;35.28;20.20;;;;;;;6.65;100.00;101381.03;5980096;29;20043;-92
2022/03/17 06:02:53;;;;;;;35.30;20.23;;;;;;;6.69;100.00;101386.88;5987013;29;20042;-92
2022/03/17 06:05:55;;;;;;;35.42;20.50;;;;;;;6.80;100.00;101391.50;5993330;29;20050;-92
2022/03/17 06:08:56;;;;;;;33.75;20.70;;;;;;;6.80;100.00;101396.66;5983179;29;20046;-92
2022/03/17 06:11:59;;;;;;;37.38;21.30;;;;;;;6.78;100.00;101393.31;5978049;29;20042;-92
2022/03/17 06:15:01;;;;;;;40.30;21.23;;;;;;;6.80;100.00;101400.03;5957391;29;20070;-92
2022/03/17 06:18:05;;;;;;;37.47;20.45;;;;;;;6.84;100.00;101403.31;5973406;29;20039;-92
2022/03/17 06:21:07;;;;;;;39.53;21.83;;;;;;;6.92;100.00;101405.50;5957627;29;20484;-92
2022/03/17 06:24:09;;;;;;;35.63;20.45;;;;;;;7.00;100.00;101403.38;5963895;29;20047;-92
2022/03/17 06:27:11;;;;;;;37.58;21.27;;;;;;;7.04;100.00;101400.56;5969318;29;20488;-92
2022/03/17 06:30:18;;;;;;;34.15;20.08;;;;;;;7.12;100.00;101395.03;5950437;29;20043;-92
2022/03/17 06:33:20;;;;;;;34.42;20.17;;;;;;;7.20;100.00;101404.94;5961718;29;20046;-92
2022/03/17 06:36:22;;;;;;;33.33;20.58;;;;;;;7.28;100.00;101410.56;5971923;29;20039;-92
2022/03/17 06:39:24;;;;;;;34.13;21.02;;;;;;;7.24;100.00;101407.28;5970055;29;20046;-92
2022/03/17 06:42:27;;;;;;;34.97;20.08;;;;;;;7.33;100.00;101416.31;5983004;29;20046;-92
2022/03/17 06:45:30;;;;;;;33.42;20.17;;;;;;;7.43;100.00;101406.34;5972032;29;20043;-92
2022/03/17 06:48:32;;;;;;;36.58;22.13;;;;;;;7.50;100.00;101418.00;5975055;29;20096;-92
2022/03/17 06:51:34;;;;;;;37.70;21.05;;;;;;;7.49;100.00;101417.16;5971654;29;20046;-92
2022/03/17 06:54:36;;;;;;;33.92;20.40;;;;;;;7.64;100.00;101415.53;5964392;29;20043;-92
2022/03/17 06:57:41;;;;;;;33.97;20.30;;;;;;;7.67;100.00;101424.84;5962990;29;20061;-93
2022/03/17 07:00:43;;;;;;;36.67;21.17;;;;;;;7.76;100.00;101429.53;5971820;29;20054;-92
2022/03/17 07:03:47;;;;;;;34.47;21.45;;;;;;;7.82;100.00;101434.34;5964941;29;20535;-92
2022/03/17 07:06:50;;;;;;;34.45;20.75;;;;;;;7.85;100.00;101431.63;6008627;23;20042;-93
2022/03/17 07:10:17;;;;;;;34.47;20.65;;;;;;;7.86;100.00;101443.59;6212703;23;20050;-94
2022/03/17 07:13:20;;;;;;;31.65;19.40;;;;;;;7.97;100.00;101441.31;6040482;29;20121;-94
2022/03/17 07:16:48;;;;;;;36.40;21.38;;;;;;;8.02;100.00;101442.78;6299590;23;20050;-94
2022/03/17 07:19:59;;;;;;;35.22;20.70;;;;;;;8.02;100.00;101438.44;6024096;29;20054;-94
2022/03/17 07:23:01;;;;;;;33.97;21.05;;;;;;;7.98;100.00;101436.97;6062858;23;20058;-94
2022/03/17 07:26:12;;;;;;;;;;;;;;;8.02;100.00;101443.59;6030543;24;20098;-94
2022/03/17 07:29:14;;;;;;;32.10;19.25;;;;;;;8.03;100.00;101440.13;6020083;29;19925;-93
2022/03/17 07:32:22;;;;;;;39.30;21.77;;;;;;;8.06;100.00;101447.69;6037197;29;20088;-94
2022/03/17 07:35:28;;;;;;;33.17;20.35;;;;;;;7.95;100.00;101450.03;6016630;29;20051;-94
2022/03/17 07:38:31;;;;;;;34.53;21.05;;;;;;;8.01;100.00;101451.44;6047498;24;20624;-94
2022/03/17 08:01:16;;;;;;;39.30;23.37;;;;;;;7.90;100.00;101490.66;6311673;23;20209;31
2022/03/17 08:51:21;;;;;;;31.70;20.88;;;;;;;7.80;100.00;101536.72;6016177;29;20062;-92
2022/03/17 08:54:37;;;;;;;35.08;21.48;;;;;;;7.89;100.00;101541.38;6004336;29;20050;-92
2022/03/17 08:57:49;;;;;;;33.67;20.73;;;;;;;7.98;100.00;101540.91;6012495;29;20038;-92
2022/03/17 09:01:00;;;;;;;30.33;19.50;;;;;;;8.18;100.00;101551.94;5983809;29;20065;-92
2022/03/17 09:04:20;;;;;;;33.67;19.67;;;;;;;8.23;100.00;101549.97;5367594;23;20113;31
2022/03/17 09:07:39;;;;;;;30.92;19.52;;;;;;;8.30;100.00;101561.63;6064855;24;20054;-92
2022/03/17 09:11:16;;;;;;;30.77;19.02;;;;;;;8.26;100.00;101554.13;6532926;23;20042;-92
2022/03/17 09:14:25;;;;;;;32.65;19.98;;;;;;;8.29;100.00;101565.09;6053489;23;20256;-92
2022/03/17 09:21:07;;;;;;;33.50;20.88;;;;;;;8.28;100.00;101575.50;6086454;23;20041;-92
2022/03/17 09:24:09;;;;;;;33.67;21.52;;;;;;;8.12;100.00;101589.22;6030604;29;20049;-91
2022/03/17 09:27:35;;;;;;;35.33;21.42;;;;;;;7.85;100.00;101595.75;6044109;23;20084;-91
2022/03/17 09:34:31;;;;;;;38.17;23.13;;;;;;;7.53;100.00;101604.19;7023351;23;20260;-92
2022/03/17 09:37:41;;;;;;;38.17;23.75;;;;;;;7.48;100.00;101610.47;6431170;24;20047;-93
2022/03/17 09:40:46;;;;;;;44.85;25.05;;;;;;;7.43;100.00;101617.56;5959697;29;20234;-90
2022/03/17 09:43:48;;;;;;;40.60;24.42;;;;;;;7.39;100.00;101621.22;5951330;29;20050;-89
2022/03/17 09:46:54;;;;;;;40.90;24.30;;;;;;;7.35;100.00;101625.66;5947624;29;20049;-89
2022/03/17 09:49:58;;;;;;;41.97;23.55;;;;;;;7.27;100.00;101628.59;5949927;29;20232;-89
2022/03/17 09:52:59;;;;;;;45.13;25.08;;;;;;;7.25;100.00;101634.72;5954740;29;20500;-88
2022/03/17 09:56:01;;;;;;;47.05;26.73;;;;;;;7.23;100.00;101641.69;5953247;29;20049;-89
2022/03/17 09:59:05;;;;;;;45.17;26.92;;;;;;;7.25;100.00;101648.44;5951934;29;20121;-89
2022/03/17 10:02:07;;;;;;;45.88;27.38;;;;;;;7.27;100.00;101646.63;5951496;29;20054;-90
2022/03/17 10:05:11;;;;;;;44.88;25.50;;;;;;;7.27;100.00;101653.53;5956345;29;20068;-90
2022/03/17 10:08:14;;;;;;;47.50;26.35;;;;;;;7.20;100.00;101665.00;5954234;29;20034;-91
2022/03/17 10:11:37;;;;;;;47.45;26.67;;;;;;;7.14;100.00;101678.19;5955041;29;20195;-91
2022/03/17 10:14:49;;;;;;;47.63;26.27;;;;;;;7.08;100.00;101682.72;5945779;29;20054;-91
2022/03/17 10:17:50;;;;;;;46.47;26.08;;;;;;;7.09;100.00;101688.69;5946865;29;20212;-90
2022/03/17 10:21:27;;;;;;;50.00;27.30;;;;;;;7.08;100.00;101707.59;5956051;29;20096;-92
2022/03/17 10:24:36;;;;;;;45.33;26.15;;;;;;;7.06;100.00;101717.16;5976723;29;20028;-93
2022/03/17 10:28:04;;;;;;;53.47;26.63;;;;;;;7.06;100.00;101728.28;7002714;23;20038;-93
2022/03/17 10:31:11;;;;;;;46.33;26.23;;;;;;;7.10;100.00;101742.69;5982656;29;20069;-92
2022/03/17 10:34:46;;;;;;;50.50;27.42;;;;;;;7.20;100.00;101755.13;5965658;29;20101;-93
2022/03/17 10:37:49;;;;;;;38.58;21.00;;;;;;;7.26;100.00;101767.75;5954637;29;20051;-90
2022/03/17 10:41:11;;;;;;;24.35;14.90;;;;;;;7.28;100.00;101765.97;5954467;29;20051;-89
2022/03/17 10:44:16;;;;;;;18.60;11.75;;;;;;;7.21;100.00;101782.59;5954445;29;20049;-89
2022/03/17 10:47:25;;;;;;;17.73;11.98;;;;;;;7.12;100.00;101784.63;5955940;29;20043;-88
2022/03/17 10:50:40;;;;;;;17.30;10.95;;;;;;;6.99;100.00;101793.81;5952675;29;20774;-88
2022/03/17 10:53:41;;;;;;;17.92;11.07;;;;;;;6.95;100.00;101809.44;5946799;29;20172;-89
2022/03/17 10:57:08;;;;;;;20.83;11.00;;;;;;;7.00;100.00;101805.78;5955399;29;20046;-90
2022/03/17 11:00:25;;;;;;;19.30;10.52;;;;;;;6.93;100.00;101822.38;5935090;29;20576;-91
2022/03/17 11:03:29;;;;;;;20.23;11.23;;;;;;;6.85;100.00;101838.16;5950512;29;20047;-91
2022/03/17 11:06:32;;;;;;;15.40;9.70;;;;;;;6.91;100.00;101834.50;5944917;29;20074;-90
2022/03/17 11:09:40;;;;;;;17.95;11.43;;;;;;;6.89;100.00;101838.88;5943014;29;20047;-91
2022/03/17 11:12:45;;;;;;;16.15;10.27;;;;;;;6.90;100.00;101845.69;5950349;29;20492;-91
2022/03/17 11:15:57;;;;;;;20.08;10.65;;;;;;;6.86;100.00;101849.31;5930933;29;20059;-92
2022/03/17 11:19:04;;;;;;;16.23;9.63;;;;;;;6.80;100.00;101852.13;5952169;29;20651;-92
2022/03/17 11:22:10;;;;;;;18.20;11.40;;;;;;;6.77;100.00;101859.97;5954321;29;20072;-92
2022/03/17 11:25:15;;;;;;;17.05;10.52;;;;;;;6.74;100.00;101866.09;5944993;29;20050;-92
2022/03/17 11:28:17;;;;;;;17.58;10.90;;;;;;;6.86;100.00;101870.72;5948662;29;20054;-93
2022/03/17 11:31:19;;;;;;;13.95;9.45;;;;;;;6.84;100.00;101859.66;5941158;29;20055;-92
2022/03/17 11:34:48;;;;;;;17.33;10.32;;;;;;;6.79;100.00;101871.88;5948575;29;20561;-90
2022/03/17 11:38:17;;;;;;;20.95;10.50;;;;;;;6.87;100.00;101877.53;5948297;29;20373;-92
2022/03/17 11:41:22;;;;;;;17.08;10.43;;;;;;;6.86;100.00;101877.63;5951961;29;20070;-91
2022/03/17 11:44:31;;;;;;;14.90;9.82;;;;;;;6.88;100.00;101898.97;5943703;29;20509;-90
2022/03/17 11:47:36;;;;;;;14.32;9.50;;;;;;;6.93;100.00;101903.91;5951523;29;20495;-89
2022/03/17 11:51:04;;;;;;;13.57;8.73;;;;;;;6.98;100.00;101904.56;5943794;29;20043;-90
2022/03/17 11:54:08;;;;;;;15.88;8.40;;;;;;;7.00;100.00;101906.16;5911179;29;20077;-92
2022/03/17 11:57:10;;;;;;;15.00;8.55;;;;;;;7.05;100.00;101908.56;5937245;29;20047;-90
2022/03/17 12:00:19;;;;;;;13.23;7.82;;;;;;;7.09;100.00;101918.66;5946811;29;20510;-91
2022/03/17 12:03:47;;;;;;;14.32;8.40;;;;;;;7.11;100.00;101913.47;5932002;29;20541;-89
2022/03/17 12:07:16;;;;;;;13.15;7.93;;;;;;;7.28;100.00;101911.00;5940112;29;20051;-89
2022/03/17 12:10:56;;;;;;;12.15;7.45;;;;;;;7.39;100.00;101925.16;5924153;29;20103;-89
2022/03/17 12:14:10;;;;;;;8.95;6.32;;;;;;;7.42;100.00;101925.03;5911213;29;20054;-89
2022/03/17 12:17:12;;;;;;;11.02;6.20;;;;;;;7.43;100.00;101939.56;5950506;29;20069;-88
2022/03/17 12:20:14;;;;;;;8.73;5.85;;;;;;;7.38;100.00;101938.94;5948170;29;20059;-87
2022/03/17 12:23:49;;;;;;;11.52;6.38;;;;;;;7.53;100.00;101953.75;5947094;29;20063;-87
2022/03/17 12:27:04;;;;;;;8.90;5.32;;;;;;;7.49;100.00;101953.03;5876734;30;20056;-87
2022/03/17 12:30:07;;;;;;;6.70;4.63;;;;;;;7.52;100.00;101958.03;5881388;30;20122;-87
2022/03/17 12:33:11;;;;;;;8.95;5.45;;;;;;;7.54;100.00;101969.13;5876965;30;20052;-87
2022/03/17 12:36:15;;;;;;;8.93;5.50;;;;;;;7.51;100.00;101969.25;5876605;30;20121;-87
2022/03/17 12:39:17;;;;;;;7.25;4.30;;;;;;;7.50;100.00;101983.06;5859068;30;20052;-88
2022/03/17 12:42:25;;;;;;;7.93;4.35;;;;;;;7.57;100.00;101975.88;5869855;30;20618;-88
2022/03/17 12:45:26;;;;;;;10.85;4.72;;;;;;;7.48;100.00;101981.47;5875764;30;20044;-88
2022/03/17 12:48:30;;;;;;;7.90;4.57;;;;;;;7.48;100.00;101977.13;5876194;30;20057;-88
2022/03/17 12:51:32;;;;;;;11.23;4.07;;;;;;;7.47;100.00;101982.34;5867374;30;20079;-88
2022/03/17 12:54:35;;;;;;;10.13;4.85;;;;;;;7.27;100.00;101998.63;5881429;30;20133;-88
2022/03/17 12:57:38;;;;;;;13.13;5.03;;;;;;;7.27;100.00;101996.06;5881406;30;20062;-88
2022/03/17 13:00:42;;;;;;;10.63;4.50;;;;;;;7.24;100.00;101993.63;5873373;30;20068;-88
2022/03/17 13:03:48;;;;;;;8.85;3.72;;;;;;;7.31;100.00;101985.56;5949715;29;20126;-88
2022/03/17 13:06:56;;;;;;;13.80;3.78;;;;;;;7.27;100.00;102002.03;5934987;29;20043;-88
2022/03/17 13:09:57;;;;;;;5.57;2.95;;;;;;;7.22;100.00;102016.00;5953411;29;20047;-88
2022/03/17 13:16:26;;;;;;;7.55;3.20;;;;;;;7.11;100.00;102017.28;5949670;29;20069;-88
2022/03/17 13:19:28;;;;;;;7.35;3.33;;;;;;;7.00;100.00;102022.00;5939458;29;20127;-88
2022/03/17 13:22:32;;;;;;;10.80;3.35;;;;;;;6.99;100.00;102022.09;5960761;29;20115;-89
2022/03/17 13:25:36;;;;;;;6.03;3.22;;;;;;;7.00;100.00;102027.16;5958702;29;20066;-89
2022/03/17 13:28:38;;;;;;;8.68;3.67;;;;;;;7.21;100.00;102032.38;5934608;29;20051;-89
2022/03/17 13:31:43;;;;;;;7.32;3.15;;;;;;;7.20;100.00;102034.09;5955691;29;20042;-89
2022/03/17 13:34:45;;;;;;;5.28;2.88;;;;;;;7.38;100.00;102045.41;5954838;29;20055;-89
2022/03/17 13:37:50;;;;;;;10.45;2.95;;;;;;;7.47;100.00;102042.44;5949907;29;20065;-89
2022/03/17 13:40:57;;;;;;;8.13;2.90;;;;;;;7.62;100.00;102047.84;5943612;29;20043;-89
2022/03/17 13:44:05;;;;;;;3.97;2.72;;;;;;;7.70;100.00;102061.25;5936911;29;20111;-89
2022/03/17 13:47:12;;;;;;;5.07;2.80;;;;;;;7.70;100.00;102062.09;5949494;29;20042;-89
2022/03/17 13:50:23;;;;;;;7.72;2.97;;;;;;;7.82;100.00;102071.03;5936535;29;20059;-89
2022/03/17 13:53:34;;;;;;;7.53;3.05;;;;;;;7.80;100.00;102077.16;5952507;29;20055;-89
2022/03/17 13:56:36;;;;;;;6.22;2.55;;;;;;;7.67;100.00;102079.41;5952548;29;20043;-89
2022/03/17 13:59:41;;;;;;;6.03;2.55;;;;;;;7.63;100.00;102080.47;5955285;29;20043;-90
2022/03/17 14:02:42;;;;;;;6.20;2.63;;;;;;;7.56;100.00;102087.59;5933038;29;20054;-90
2022/03/17 14:06:08;;;;;;;6.22;2.65;;;;;;;7.60;100.00;102094.28;5947213;29;20405;-90
2022/03/17 14:09:12;;;;;;;5.20;2.20;;;;;;;7.47;100.00;102091.38;5934688;29;20115;-90
2022/03/17 14:12:16;;;;;;;9.73;2.72;;;;;;;7.55;100.00;102089.34;5932568;29;20096;-90
2022/03/17 14:15:18;;;;;;;5.05;2.20;;;;;;;7.67;100.00;102095.72;5951684;29;20047;-90
2022/03/17 14:18:21;;;;;;;7.57;2.00;;;;;;;7.61;100.00;102114.03;5923866;29;20545;-91
2022/03/17 14:21:25;;;;;;;6.45;2.20;;;;;;;7.57;100.00;102115.03;5955047;29;20050;-91
2022/03/17 14:24:29;;;;;;;10.30;1.98;;;;;;;7.42;100.00;102115.66;5948179;29;20463;-90
2022/03/17 14:27:31;;;;;;;8.00;2.28;;;;;;;7.45;100.00;102118.09;5949625;29;20055;-91
2022/03/17 14:30:33;;;;;;;7.47;2.67;;;;;;;7.50;100.00;102119.63;5935000;29;20043;-91
2022/03/17 14:33:37;;;;;;;5.65;2.10;;;;;;;7.45;100.00;102118.09;5945458;29;20601;-91
2022/03/17 14:36:41;;;;;;;6.45;2.28;;;;;;;7.50;100.00;102134.22;5948383;29;20130;-91
2022/03/17 14:39:45;;;;;;;4.85;1.73;;;;;;;7.52;100.00;102147.88;5954107;29;20081;-92
2022/03/17 14:42:50;;;;;;;8.48;2.10;;;;;;;7.45;100.00;102152.47;5950214;29;20458;-92
2022/03/17 14:45:56;;;;;;;9.25;2.15;;;;;;;7.44;100.00;102148.19;5941796;29;20054;-92
2022/03/17 14:49:01;;;;;;;5.63;1.52;;;;;;;7.59;100.00;102145.91;5942890;29;20038;-93
2022/03/17 14:52:03;;;;;;;5.93;1.88;;;;;;;7.67;100.00;102149.84;5952709;29;20395;-93
2022/03/17 14:55:06;;;;;;;8.63;1.92;;;;;;;7.77;100.00;102155.44;5956632;29;20618;-92
2022/03/17 14:58:08;;;;;;;8.73;2.25;;;;;;;7.80;100.00;102150.19;5931921;29;20047;-93
2022/03/17 15:01:22;;;;;;;6.53;1.95;;;;;;;7.86;100.00;102167.16;5973176;29;20054;-94
2022/03/17 15:04:28;;;;;;;6.93;1.92;;;;;;;7.80;100.00;102162.22;5983971;29;20058;-93
2022/03/17 15:07:31;;;;;;;4.07;1.30;;;;;;;7.77;100.00;102158.03;5971988;29;20074;-93
2022/03/17 18:08:26;;;;;;;9.52;3.38;;;;;;;4.03;100.00;102430.81;5997710;29;20084;-91
2022/03/17 18:11:28;;;;;;;8.48;4.07;;;;;;;3.99;100.00;102436.03;5982400;29;20042;-91
2022/03/17 18:14:31;;;;;;;8.05;3.90;;;;;;;3.93;100.00;102437.00;5966744;29;20082;-91
2022/03/17 18:17:32;;;;;;;7.65;3.28;;;;;;;3.87;100.00;102442.22;5981630;29;20055;-91
2022/03/17 18:20:35;;;;;;;10.50;4.18;;;;;;;3.82;100.00;102451.72;5989050;29;20051;-91
2022/03/17 18:23:37;;;;;;;10.05;3.60;;;;;;;3.80;100.00;102446.66;5968859;29;20047;-91
2022/03/17 18:26:40;;;;;;;9.52;3.40;;;;;;;3.78;100.00;102455.25;5975777;29;20229;-91
2022/03/17 18:29:43;;;;;;;8.57;3.92;;;;;;;3.74;100.00;102458.72;5974391;29;20059;-91
2022/03/17 18:32:54;;;;;;;7.00;4.43;;;;;;;3.66;100.00;102458.88;5969996;29;20031;-91
2022/03/17 18:35:56;;;;;;;8.48;4.38;;;;;;;3.63;100.00;102469.19;5964338;29;20043;-91
2022/03/17 18:39:01;;;;;;;12.77;3.78;;;;;;;3.54;100.00;102470.19;5961709;29;20057;-91
2022/03/17 18:42:04;;;;;;;9.82;3.47;;;;;;;3.52;100.00;102477.03;5974166;29;20508;-94